createdAt,value
2023-02-16T00:00:59.540Z,65.93
2023-02-16T00:03:02.959Z,65.55
2023-02-16T00:05:23.217Z,66.08
2023-02-16T00:07:29.355Z,65.79
2023-02-16T00:09:33.003Z,66.05
2023-02-16T00:11:54.599Z,66.05
2023-02-16T00:13:59.289Z,66.00
2023-02-16T00:16:02.639Z,66.15
2023-02-16T00:18:15.723Z,66.16
2023-02-16T00:20:19.746Z,65.99
2023-02-16T00:22:23.049Z,66.07
2023-02-16T00:24:28.335Z,66.17
2023-02-16T00:26:33.891Z,66.39
2023-02-16T00:28:37.235Z,66.37
2023-02-16T00:30:41.890Z,66.40
2023-02-16T00:32:45.617Z,66.11
2023-02-16T00:34:49.009Z,66.36
2023-02-16T00:36:52.389Z,66.29
2023-02-16T00:38:57.664Z,66.32
2023-02-16T00:41:01.291Z,66.48
2023-02-16T00:43:05.508Z,66.51
2023-02-16T00:45:15.904Z,66.67
2023-02-16T00:47:23.594Z,66.86
2023-02-16T00:49:26.939Z,66.86
2023-02-16T00:51:30.232Z,66.79
2023-02-16T00:53:33.533Z,66.77
2023-02-16T00:55:38.244Z,66.75
2023-02-16T00:57:45.476Z,66.82
2023-02-16T00:59:52.492Z,66.84
2023-02-16T01:01:57.345Z,66.67
2023-02-16T01:04:05.435Z,66.96
2023-02-16T01:06:26.439Z,66.91
2023-02-16T01:08:47.458Z,66.88
2023-02-16T01:11:07.716Z,66.82
2023-02-16T01:13:12.279Z,66.93
2023-02-16T01:15:20.201Z,66.85
2023-02-16T01:17:24.258Z,66.94
2023-02-16T01:19:31.519Z,67.00
2023-02-16T01:21:34.901Z,66.67
2023-02-16T01:23:38.774Z,66.97
2023-02-16T01:25:43.282Z,67.01
2023-02-16T01:27:46.744Z,66.89
2023-02-16T01:29:50.035Z,66.90
2023-02-16T01:31:53.445Z,67.15
2023-02-16T01:33:56.848Z,67.00
2023-02-16T01:36:01.735Z,67.07
2023-02-16T01:38:05.103Z,67.33
2023-02-16T01:40:24.227Z,66.99
2023-02-16T01:42:36.496Z,67.17
2023-02-16T01:44:46.117Z,67.23
2023-02-16T01:46:53.226Z,67.23
2023-02-16T01:48:56.708Z,67.07
2023-02-16T01:51:08.127Z,67.44
2023-02-16T01:53:19.668Z,67.18
2023-02-16T01:55:26.984Z,67.32
2023-02-16T01:57:38.937Z,67.48
2023-02-16T02:00:05.323Z,67.60
2023-02-16T02:02:19.054Z,67.46
2023-02-16T02:04:48.095Z,67.85
2023-02-16T02:06:51.773Z,68.15
2023-02-16T02:09:01.536Z,67.95
2023-02-16T02:11:11.430Z,68.25
2023-02-16T02:13:21.195Z,68.00
2023-02-16T02:15:30.643Z,68.27
2023-02-16T02:17:34.152Z,68.64
2023-02-16T02:19:48.712Z,68.45
2023-02-16T02:22:35.534Z,68.68
2023-02-16T02:25:14.476Z,68.42
2023-02-16T02:27:23.685Z,68.45
2023-02-16T02:29:46.061Z,68.38
2023-02-16T02:32:00.666Z,68.29
2023-02-16T02:34:25.101Z,68.57
2023-02-16T02:36:40.425Z,68.49
2023-02-16T02:38:58.762Z,68.84
2023-02-16T02:41:10.511Z,68.95
2023-02-16T02:43:20.061Z,69.17
2023-02-16T02:45:28.182Z,68.77
2023-02-16T02:47:39.676Z,68.71
2023-02-16T02:49:51.085Z,69.43
2023-02-16T02:51:54.743Z,69.55
2023-02-16T02:54:20.173Z,69.05
2023-02-16T02:56:42.884Z,69.07
2023-02-16T02:59:09.338Z,69.14
2023-02-16T03:01:15.189Z,69.49
2023-02-16T03:03:21.924Z,69.15
2023-02-16T03:05:29.035Z,68.97
2023-02-16T03:07:47.456Z,69.01
2023-02-16T03:10:11.483Z,69.24
2023-02-16T03:12:44.955Z,69.32
2023-02-16T03:14:55.545Z,69.93
2023-02-16T03:17:18.751Z,69.60
2023-02-16T03:19:39.838Z,69.87
2023-02-16T03:22:01.282Z,69.42
2023-02-16T03:24:27.136Z,69.89
2023-02-16T03:26:48.899Z,69.66
2023-02-16T03:29:11.325Z,69.59
2023-02-16T03:31:21.584Z,69.94
2023-02-16T03:33:26.224Z,69.81
2023-02-16T03:35:30.115Z,69.97
2023-02-16T03:37:33.769Z,70.13
2023-02-16T03:39:57.604Z,69.54
2023-02-16T03:42:00.991Z,69.69
2023-02-16T03:44:04.315Z,70.34
2023-02-16T03:46:07.640Z,69.75
2023-02-16T03:48:13.211Z,69.54
2023-02-16T03:50:17.282Z,69.86
2023-02-16T03:52:20.643Z,70.12
2023-02-16T03:54:23.908Z,69.98
2023-02-16T03:56:27.303Z,71.12
2023-02-16T03:58:30.608Z,70.62
2023-02-16T04:00:34.294Z,70.82
2023-02-16T04:02:37.713Z,71.45
2023-02-16T04:04:42.397Z,70.58
2023-02-16T04:06:46.128Z,71.11
2023-02-16T04:08:50.769Z,71.42
2023-02-16T04:10:56.781Z,71.42
2023-02-16T04:12:59.526Z,71.13
2023-02-16T04:15:03.343Z,70.81
2023-02-16T04:17:06.670Z,71.39
2023-02-16T04:19:11.191Z,71.04
2023-02-16T04:21:15.957Z,71.34
2023-02-16T04:23:19.352Z,71.51
2023-02-16T04:25:22.680Z,70.75
2023-02-16T04:27:26.051Z,70.81
2023-02-16T04:29:30.062Z,71.03
2023-02-16T04:31:33.451Z,70.81
2023-02-16T04:33:36.854Z,71.40
2023-02-16T04:35:40.229Z,70.83
2023-02-16T04:37:45.213Z,70.76
2023-02-16T04:39:48.807Z,70.98
2023-02-16T04:41:52.167Z,70.91
2023-02-16T04:43:55.672Z,71.36
2023-02-16T04:45:59.413Z,71.22
2023-02-16T04:48:03.649Z,70.96
2023-02-16T04:50:08.408Z,70.80
2023-02-16T04:52:13.071Z,70.99
2023-02-16T04:54:17.922Z,70.92
2023-02-16T04:56:21.341Z,71.33
2023-02-16T04:58:24.585Z,71.79
2023-02-16T05:00:28.049Z,71.39
2023-02-16T05:02:31.409Z,71.78
2023-02-16T05:04:35.442Z,71.60
2023-02-16T05:06:39.766Z,71.21
2023-02-16T05:08:43.173Z,71.36
2023-02-16T05:11:08.743Z,71.35
2023-02-16T05:13:30.331Z,71.41
2023-02-16T05:15:32.742Z,71.57
2023-02-16T05:17:36.081Z,71.28
2023-02-16T05:19:39.548Z,71.84
2023-02-16T05:21:43.048Z,71.25
2023-02-16T05:23:46.683Z,71.54
2023-02-16T05:25:51.507Z,71.48
2023-02-16T05:27:54.895Z,71.78
2023-02-16T05:29:59.033Z,72.09
2023-02-16T05:32:04.747Z,72.31
2023-02-16T05:34:08.420Z,71.89
2023-02-16T05:36:11.953Z,72.09
2023-02-16T05:38:15.499Z,71.94
2023-02-16T05:40:19.161Z,72.11
2023-02-16T05:42:24.067Z,72.50
2023-02-16T05:44:27.497Z,72.40
2023-02-16T05:46:34.301Z,71.99
2023-02-16T05:48:37.955Z,72.11
2023-02-16T05:50:41.405Z,71.60
2023-02-16T05:52:44.821Z,72.10
2023-02-16T05:54:48.530Z,71.45
2023-02-16T05:56:53.848Z,71.89
2023-02-16T05:58:59.609Z,71.88
2023-02-16T06:01:03.314Z,71.56
2023-02-16T06:03:06.901Z,71.79
2023-02-16T06:05:10.325Z,71.52
2023-02-16T06:07:14.910Z,71.83
2023-02-16T06:09:19.263Z,71.93
2023-02-16T06:11:37.556Z,71.92
2023-02-16T06:13:41.465Z,71.45
2023-02-16T06:15:47.048Z,70.75
2023-02-16T06:17:50.621Z,71.36
2023-02-16T06:19:54.124Z,72.12
2023-02-16T06:21:57.493Z,72.17
2023-02-16T06:24:01.549Z,71.78
2023-02-16T06:26:05.274Z,72.03
2023-02-16T06:28:08.926Z,72.38
2023-02-16T06:30:12.907Z,72.36
2023-02-16T06:32:18.274Z,72.00
2023-02-16T06:34:21.943Z,71.87
2023-02-16T06:36:26.160Z,72.11
2023-02-16T06:38:29.568Z,72.10
2023-02-16T06:40:33.010Z,72.86
2023-02-16T06:42:36.540Z,72.36
2023-02-16T06:44:44.222Z,72.84
2023-02-16T06:46:48.932Z,72.48
2023-02-16T06:48:54.145Z,73.22
2023-02-16T06:50:57.605Z,72.61
2023-02-16T06:53:01.348Z,73.51
2023-02-16T06:55:04.974Z,74.21
2023-02-16T06:57:08.397Z,73.73
2023-02-16T06:59:12.846Z,74.02
2023-02-16T07:01:18.128Z,73.93
2023-02-16T07:03:21.684Z,74.26
2023-02-16T07:05:26.547Z,74.72
2023-02-16T07:07:30.871Z,74.59
2023-02-16T07:09:37.388Z,74.07
2023-02-16T07:11:40.960Z,73.96
2023-02-16T07:13:44.656Z,73.62
2023-02-16T07:15:48.516Z,74.38
2023-02-16T07:17:52.161Z,74.37
2023-02-16T07:19:56.331Z,74.54
2023-02-16T07:22:03.065Z,74.74
2023-02-16T07:24:07.156Z,74.83
2023-02-16T07:26:10.922Z,76.59
2023-02-16T07:28:14.673Z,75.70
2023-02-16T07:30:18.608Z,75.05
2023-02-16T07:32:22.142Z,75.97
2023-02-16T07:34:25.644Z,74.73
2023-02-16T07:36:29.095Z,74.40
2023-02-16T07:38:34.154Z,74.55
2023-02-16T07:40:38.774Z,74.43
2023-02-16T07:42:42.334Z,74.23
2023-02-16T07:44:46.097Z,74.74
2023-02-16T07:46:49.666Z,74.93
2023-02-16T07:48:53.174Z,75.34
2023-02-16T07:50:56.582Z,74.66
2023-02-16T07:53:02.287Z,75.32
2023-02-16T07:55:07.821Z,74.96
2023-02-16T07:57:11.316Z,74.70
2023-02-16T07:59:16.886Z,74.38
2023-02-16T08:01:20.909Z,74.81
2023-02-16T08:03:25.101Z,74.59
2023-02-16T08:05:28.881Z,74.53
2023-02-16T08:07:32.546Z,74.63
2023-02-16T08:09:36.058Z,75.25
2023-02-16T08:11:40.792Z,75.03
2023-02-16T08:13:45.515Z,75.29
2023-02-16T08:15:49.231Z,75.39
2023-02-16T08:17:52.674Z,75.58
2023-02-16T08:19:56.106Z,74.63
2023-02-16T08:21:59.939Z,75.51
2023-02-16T08:24:05.224Z,75.36
2023-02-16T08:26:10.903Z,75.17
2023-02-16T08:28:15.628Z,75.31
2023-02-16T08:30:20.533Z,75.56
2023-02-16T08:32:24.110Z,75.81
2023-02-16T08:34:27.830Z,75.14
2023-02-16T08:36:34.548Z,75.16
2023-02-16T08:38:37.996Z,75.86
2023-02-16T08:40:41.372Z,75.44
2023-02-16T08:42:44.794Z,76.18
2023-02-16T08:44:49.660Z,75.40
2023-02-16T08:46:54.950Z,75.64
2023-02-16T08:49:00.039Z,75.66
2023-02-16T08:51:06.640Z,75.24
2023-02-16T08:53:11.291Z,75.14
2023-02-16T08:55:15.354Z,75.30
2023-02-16T08:57:18.852Z,75.12
2023-02-16T08:59:23.819Z,75.18
2023-02-16T09:01:29.377Z,74.93
2023-02-16T09:03:33.613Z,74.54
2023-02-16T09:05:37.089Z,74.76
2023-02-16T09:07:41.374Z,74.76
2023-02-16T09:09:44.821Z,74.61
2023-02-16T09:11:48.931Z,74.25
2023-02-16T09:13:53.271Z,74.55
2023-02-16T09:15:56.761Z,74.00
2023-02-16T09:18:01.577Z,74.37
2023-02-16T09:20:06.063Z,73.62
2023-02-16T09:22:09.632Z,74.23
2023-02-16T09:24:13.098Z,73.56
2023-02-16T09:26:17.142Z,74.03
2023-02-16T09:28:20.624Z,73.76
2023-02-16T09:30:24.075Z,73.36
2023-02-16T09:32:29.461Z,73.41
2023-02-16T09:34:34.694Z,72.91
2023-02-16T09:36:39.146Z,72.92
2023-02-16T09:38:43.204Z,73.19
2023-02-16T09:40:46.619Z,72.54
2023-02-16T09:42:58.420Z,72.66
2023-02-16T09:45:09.754Z,72.39
2023-02-16T09:47:22.046Z,72.34
2023-02-16T09:49:32.457Z,72.24
2023-02-16T09:51:41.080Z,71.84
2023-02-16T09:53:45.233Z,71.89
2023-02-16T09:55:58.090Z,72.11
2023-02-16T09:58:08.128Z,72.10
2023-02-16T10:00:23.397Z,71.91
2023-02-16T10:02:36.396Z,72.04
2023-02-16T10:04:50.197Z,71.80
2023-02-16T10:07:07.517Z,71.72
2023-02-16T10:09:13.650Z,72.03
2023-02-16T10:11:42.917Z,72.35
2023-02-16T10:13:54.121Z,72.17
2023-02-16T10:16:01.869Z,72.36
2023-02-16T10:18:10.081Z,71.57
2023-02-16T10:20:16.325Z,71.36
2023-02-16T10:22:29.365Z,71.39
2023-02-16T10:24:40.662Z,71.08
2023-02-16T10:26:47.453Z,71.25
2023-02-16T10:28:52.964Z,70.95
2023-02-16T10:31:03.169Z,71.35
2023-02-16T10:33:15.916Z,71.04
2023-02-16T10:35:25.393Z,71.27
2023-02-16T10:37:47.681Z,71.21
2023-02-16T10:39:59.153Z,70.87
2023-02-16T10:42:09.822Z,70.81
2023-02-16T10:44:20.888Z,70.84
2023-02-16T10:46:27.594Z,70.59
2023-02-16T10:48:31.603Z,70.44
2023-02-16T10:50:42.035Z,70.92
2023-02-16T10:52:46.755Z,70.69
2023-02-16T10:54:50.852Z,71.03
2023-02-16T10:56:57.443Z,71.17
2023-02-16T10:59:05.664Z,71.31
2023-02-16T11:01:15.133Z,71.69
2023-02-16T11:03:23.853Z,71.77
2023-02-16T11:05:34.166Z,71.47
2023-02-16T11:07:56.655Z,71.51
2023-02-16T11:10:01.966Z,71.66
2023-02-16T11:12:17.714Z,72.46
2023-02-16T11:14:23.396Z,72.03
2023-02-16T11:16:29.601Z,71.63
2023-02-16T11:18:37.837Z,71.75
2023-02-16T11:20:53.947Z,71.64
2023-02-16T11:23:15.836Z,71.87
2023-02-16T11:25:25.512Z,71.75
2023-02-16T11:27:29.867Z,71.53
2023-02-16T11:29:33.866Z,71.85
2023-02-16T11:31:40.234Z,71.84
2023-02-16T11:33:55.250Z,71.31
2023-02-16T11:35:58.867Z,70.92
2023-02-16T11:38:02.334Z,70.61
2023-02-16T11:40:18.766Z,70.18
2023-02-16T11:42:31.225Z,70.23
2023-02-16T11:44:38.063Z,69.56
2023-02-16T11:46:42.449Z,69.89
2023-02-16T11:48:46.728Z,69.62
2023-02-16T11:50:58.728Z,69.72
2023-02-16T11:53:15.870Z,69.97
2023-02-16T11:55:28.001Z,69.91
2023-02-16T11:57:33.705Z,69.63
2023-02-16T11:59:38.790Z,69.59
2023-02-16T12:02:04.525Z,70.00
2023-02-16T12:04:19.099Z,69.90
2023-02-16T12:06:35.505Z,69.71
2023-02-16T12:08:58.148Z,69.40
2023-02-16T12:11:14.785Z,69.64
2023-02-16T12:13:27.273Z,69.99
2023-02-16T12:15:37.258Z,69.61
2023-02-16T12:17:54.884Z,69.44
2023-02-16T12:20:06.045Z,69.35
2023-02-16T12:22:23.162Z,69.30
2023-02-16T12:24:41.554Z,69.07
2023-02-16T12:26:51.858Z,69.36
2023-02-16T12:29:05.758Z,69.38
2023-02-16T12:31:22.485Z,69.48
2023-02-16T12:33:42.533Z,68.82
2023-02-16T12:36:09.183Z,69.01
2023-02-16T12:38:26.920Z,68.79
2023-02-16T12:40:43.180Z,68.79
2023-02-16T12:43:02.881Z,68.79
2023-02-16T12:45:12.643Z,69.20
2023-02-16T12:47:24.744Z,69.69
2023-02-16T12:49:35.577Z,69.26
2023-02-16T12:51:43.477Z,69.98
2023-02-16T12:53:53.597Z,69.76
2023-02-16T12:56:01.446Z,69.77
2023-02-16T12:58:17.364Z,69.94
2023-02-16T13:00:27.048Z,70.08
2023-02-16T13:02:40.527Z,70.37
2023-02-16T13:04:50.392Z,70.49
2023-02-16T13:07:03.081Z,70.61
2023-02-16T13:09:25.408Z,70.95
2023-02-16T13:11:35.586Z,70.61
2023-02-16T13:13:42.647Z,70.57
2023-02-16T13:15:52.196Z,70.53
2023-02-16T13:17:58.920Z,70.97
2023-02-16T13:22:43.231Z,71.36
2023-02-16T13:24:57.035Z,71.47
2023-02-16T13:27:13.292Z,71.49
2023-02-16T13:29:38.273Z,71.26
2023-02-16T13:31:54.737Z,70.92
2023-02-16T13:34:15.556Z,71.36
2023-02-16T13:36:35.932Z,71.15
2023-02-16T13:39:19.135Z,71.29
2023-02-16T13:41:44.532Z,71.62
2023-02-16T13:43:53.672Z,71.03
2023-02-16T13:46:00.644Z,71.21
2023-02-16T13:48:16.064Z,70.82
2023-02-16T13:50:31.177Z,70.75
2023-02-16T13:52:37.171Z,70.22
2023-02-16T13:54:43.649Z,70.54
2023-02-16T13:56:47.090Z,69.82
2023-02-16T13:58:51.843Z,68.90
2023-02-16T14:00:55.935Z,67.51
2023-02-16T14:03:03.360Z,66.53
2023-02-16T14:05:13.269Z,65.77
2023-02-16T14:07:35.959Z,65.25
2023-02-16T14:09:49.693Z,64.75
2023-02-16T14:12:15.315Z,65.24
2023-02-16T14:14:28.508Z,64.11
2023-02-16T14:16:34.434Z,63.91
2023-02-16T14:18:44.022Z,63.58
2023-02-16T14:20:48.672Z,63.74
2023-02-16T14:22:57.370Z,63.61
2023-02-16T14:25:03.713Z,64.26
2023-02-16T14:27:11.143Z,64.97
2023-02-16T14:29:19.227Z,65.22
2023-02-16T14:31:25.327Z,65.21
2023-02-16T14:33:41.876Z,65.19
2023-02-16T14:36:04.491Z,65.26
2023-02-16T14:38:17.865Z,65.34
2023-02-16T14:40:23.625Z,65.33
2023-02-16T14:42:31.840Z,65.34
2023-02-16T14:44:54.158Z,65.42
2023-02-16T14:47:06.992Z,65.05
2023-02-16T14:49:57.952Z,64.48
2023-02-16T14:52:37.111Z,64.61
2023-02-16T14:55:13.213Z,64.05
2023-02-16T14:57:19.634Z,63.83
2023-02-16T14:59:32.799Z,63.49
2023-02-16T15:01:41.920Z,63.79
2023-02-16T15:03:46.679Z,63.94
2023-02-16T15:05:54.808Z,63.67
2023-02-16T15:08:09.108Z,64.17
2023-02-16T15:10:15.490Z,64.38
2023-02-16T15:12:24.965Z,64.67
2023-02-16T15:14:29.837Z,64.86
2023-02-16T15:16:34.072Z,64.98
2023-02-16T15:18:41.681Z,65.08
2023-02-16T15:20:47.830Z,64.89
2023-02-16T15:22:52.499Z,65.25
2023-02-16T15:24:59.838Z,65.47
2023-02-16T15:27:03.661Z,65.60
2023-02-16T15:29:29.371Z,65.99
2023-02-16T15:31:35.546Z,66.16
2023-02-16T15:33:42.376Z,66.62
2023-02-16T15:35:46.729Z,66.74
2023-02-16T15:38:00.744Z,66.91
2023-02-16T15:40:26.002Z,66.94
2023-02-16T15:42:34.138Z,66.94
2023-02-16T15:44:39.180Z,67.25
2023-02-16T15:46:44.280Z,67.57
2023-02-16T15:48:49.276Z,67.32
2023-02-16T15:50:54.979Z,67.01
2023-02-16T15:52:58.347Z,66.94
2023-02-16T15:55:02.816Z,66.91
2023-02-16T15:57:16.285Z,67.28
2023-02-16T15:59:32.014Z,67.42
2023-02-16T16:01:36.677Z,67.83
2023-02-16T16:03:46.504Z,67.88
2023-02-16T16:06:00.804Z,67.84
2023-02-16T16:08:05.661Z,67.97
2023-02-16T16:10:16.636Z,68.08
2023-02-16T16:12:22.970Z,68.80
2023-02-16T16:14:27.204Z,68.81
2023-02-16T16:16:30.969Z,68.82
2023-02-16T16:18:38.973Z,68.82
2023-02-16T16:20:44.120Z,69.25
2023-02-16T16:22:47.611Z,69.23
2023-02-16T16:24:51.153Z,69.49
2023-02-16T16:26:56.476Z,69.88
2023-02-16T16:29:01.947Z,69.91
2023-02-16T16:31:10.802Z,69.73
2023-02-16T16:33:17.065Z,70.17
2023-02-16T16:35:22.747Z,70.09
2023-02-16T16:37:29.614Z,70.23
2023-02-16T16:39:35.503Z,70.18
2023-02-16T16:41:40.463Z,70.35
2023-02-16T16:43:54.176Z,70.47
2023-02-16T16:46:13.984Z,70.52
2023-02-16T16:48:20.948Z,70.60
2023-02-16T16:50:34.081Z,70.61
2023-02-16T16:52:43.915Z,70.75
2023-02-16T16:54:49.024Z,70.58
2023-02-16T16:56:53.134Z,70.85
2023-02-16T16:58:58.624Z,70.55
2023-02-16T17:01:04.002Z,70.68
2023-02-16T17:03:09.364Z,70.70
2023-02-16T17:05:13.238Z,70.55
2023-02-16T17:07:16.683Z,70.61
2023-02-16T17:09:20.152Z,70.36
2023-02-16T17:11:27.175Z,70.14
2023-02-16T17:13:31.801Z,70.57
2023-02-16T17:15:42.367Z,70.39
2023-02-16T17:17:47.199Z,70.33
2023-02-16T17:19:50.624Z,70.15
2023-02-16T17:21:54.095Z,70.39
2023-02-16T17:23:57.601Z,70.14
2023-02-16T17:26:00.950Z,70.26
2023-02-16T17:28:05.207Z,70.10
2023-02-16T17:30:11.234Z,70.28
2023-02-16T17:32:15.162Z,70.34
2023-02-16T17:34:20.063Z,70.20
2023-02-16T17:36:25.910Z,70.37
2023-02-16T17:38:29.436Z,70.18
2023-02-16T17:40:32.941Z,70.02
2023-02-16T17:42:36.296Z,70.20
2023-02-16T17:44:39.730Z,70.11
2023-02-16T17:46:44.438Z,70.23
2023-02-16T17:48:52.008Z,70.33
2023-02-16T17:50:57.524Z,70.20
2023-02-16T17:53:01.273Z,70.18
2023-02-16T17:55:05.054Z,70.07
2023-02-16T17:57:08.484Z,69.76
2023-02-16T17:59:15.278Z,69.78
2023-02-16T18:01:21.018Z,69.72
2023-02-16T18:03:25.104Z,69.63
2023-02-16T18:05:28.522Z,70.01
2023-02-16T18:07:33.392Z,69.96
2023-02-16T18:09:36.812Z,69.93
2023-02-16T18:11:40.462Z,69.67
2023-02-16T18:13:44.202Z,69.83
2023-02-16T18:15:50.300Z,69.70
2023-02-16T18:17:55.411Z,69.58
2023-02-16T18:19:58.899Z,69.38
2023-02-16T18:22:02.899Z,69.17
2023-02-16T18:24:08.302Z,69.25
2023-02-16T18:26:15.380Z,69.21
2023-02-16T18:28:20.421Z,69.15
2023-02-16T18:30:24.968Z,70.10
2023-02-16T18:32:28.647Z,70.37
2023-02-16T18:34:33.372Z,70.53
2023-02-16T18:36:36.897Z,71.25
2023-02-16T18:38:40.304Z,71.91
2023-02-16T18:40:45.757Z,71.72
2023-02-16T18:42:49.295Z,71.89
2023-02-16T18:44:52.908Z,71.99
2023-02-16T18:46:57.210Z,71.76
2023-02-16T18:49:00.763Z,71.82
2023-02-16T18:51:05.754Z,72.17
2023-02-16T18:53:09.205Z,71.54
2023-02-16T18:55:12.830Z,71.44
2023-02-16T18:57:17.686Z,71.46
2023-02-16T18:59:21.133Z,71.41
2023-02-16T19:01:30.677Z,72.14
2023-02-16T19:03:34.249Z,72.59
2023-02-16T19:05:38.396Z,72.47
2023-02-16T19:07:42.208Z,72.66
2023-02-16T19:09:45.805Z,73.02
2023-02-16T19:11:49.341Z,73.72
2023-02-16T19:13:54.178Z,74.14
2023-02-16T19:15:57.890Z,74.23
2023-02-16T19:18:01.248Z,75.14
2023-02-16T19:20:04.770Z,74.67
2023-02-16T19:22:08.151Z,74.13
2023-02-16T19:24:12.880Z,74.15
2023-02-16T19:26:18.935Z,73.46
2023-02-16T19:28:22.678Z,73.25
2023-02-16T19:30:27.698Z,73.38
2023-02-16T19:32:31.564Z,74.10
2023-02-16T19:34:35.260Z,74.58
2023-02-16T19:36:38.850Z,74.22
2023-02-16T19:38:42.967Z,74.77
2023-02-16T19:40:46.519Z,74.12
2023-02-16T19:42:50.258Z,74.52
2023-02-16T19:44:53.951Z,74.42
2023-02-16T19:46:58.833Z,77.64
2023-02-16T19:49:02.740Z,78.25
2023-02-16T19:51:08.187Z,78.69
2023-02-16T19:53:11.762Z,79.23
2023-02-16T19:55:15.234Z,80.21
2023-02-16T19:57:18.872Z,80.06
2023-02-16T19:59:23.155Z,79.61
2023-02-16T20:01:28.656Z,80.38
2023-02-16T20:03:33.536Z,81.47
2023-02-16T20:05:37.296Z,81.06
2023-02-16T20:07:40.898Z,80.73
2023-02-16T20:09:44.399Z,80.67
2023-02-16T20:11:47.971Z,80.80
2023-02-16T20:13:52.152Z,80.43
2023-02-16T20:15:55.585Z,80.57
2023-02-16T20:17:59.022Z,80.69
2023-02-16T20:20:05.195Z,80.42
2023-02-16T20:22:08.624Z,80.25
2023-02-16T20:24:12.248Z,79.70
2023-02-16T20:26:20.556Z,79.53
2023-02-16T20:28:24.874Z,79.19
2023-02-16T20:30:28.422Z,78.86
2023-02-16T20:32:31.778Z,79.00
2023-02-16T20:34:35.218Z,78.87
2023-02-16T20:36:40.125Z,78.50
2023-02-16T20:38:43.509Z,78.46
2023-02-16T20:40:46.943Z,78.39
2023-02-16T20:42:50.459Z,78.23
2023-02-16T20:44:54.036Z,78.20
2023-02-16T20:46:57.475Z,78.45
2023-02-16T20:49:01.105Z,78.19
2023-02-16T20:51:07.088Z,78.50
2023-02-16T20:53:11.962Z,78.35
2023-02-16T20:55:15.811Z,78.43
2023-02-16T20:57:26.748Z,78.70
2023-02-16T20:59:30.712Z,78.71
2023-02-16T21:01:37.525Z,78.87
2023-02-16T21:03:41.279Z,79.17
2023-02-16T21:05:44.899Z,78.64
2023-02-16T21:07:49.947Z,79.24
2023-02-16T21:09:54.868Z,79.00
2023-02-16T21:11:58.312Z,79.18
2023-02-16T21:14:02.354Z,79.32
2023-02-16T21:16:07.129Z,79.28
2023-02-16T21:18:11.586Z,79.61
2023-02-16T21:20:15.032Z,79.62
2023-02-16T21:22:18.734Z,79.79
2023-02-16T21:24:22.338Z,80.31
2023-02-16T21:26:27.433Z,80.61
2023-02-16T21:28:30.984Z,80.38
2023-02-16T21:30:34.535Z,80.29
2023-02-16T21:32:37.980Z,80.01
2023-02-16T21:34:41.473Z,80.04
2023-02-16T21:36:44.908Z,80.47
2023-02-16T21:38:49.315Z,80.23
2023-02-16T21:41:10.127Z,80.44
2023-02-16T21:43:14.906Z,80.27
2023-02-16T21:45:18.516Z,80.24
2023-02-16T21:47:39.464Z,80.29
2023-02-16T21:49:43.249Z,80.88
2023-02-16T21:51:48.357Z,80.94
2023-02-16T21:53:53.229Z,80.91
2023-02-16T21:56:14.206Z,80.86
2023-02-16T21:58:19.184Z,80.90
2023-02-16T22:00:22.785Z,80.96
2023-02-16T22:02:26.452Z,80.92
2023-02-16T22:04:29.925Z,80.94
2023-02-16T22:06:35.621Z,81.16
2023-02-16T22:08:39.106Z,81.51
2023-02-16T22:10:42.575Z,81.99
2023-02-16T22:12:46.086Z,81.76
2023-02-16T22:14:50.886Z,82.25
2023-02-16T22:16:54.386Z,82.51
2023-02-16T22:18:59.558Z,82.47
2023-02-16T22:21:03.342Z,82.70
2023-02-16T22:23:06.735Z,83.32
2023-02-16T22:25:10.724Z,83.30
2023-02-16T22:27:14.098Z,83.26
2023-02-16T22:29:18.385Z,83.19
2023-02-16T22:31:24.591Z,83.57
2023-02-16T22:33:28.078Z,83.04
2023-02-16T22:35:31.652Z,83.25
2023-02-16T22:37:35.711Z,82.64
2023-02-16T22:39:39.229Z,82.82
2023-02-16T22:41:43.006Z,82.88
2023-02-16T22:43:46.435Z,82.92
2023-02-16T22:45:49.803Z,82.75
2023-02-16T22:47:55.287Z,83.14
2023-02-16T22:49:58.711Z,82.81
2023-02-16T22:52:02.098Z,83.38
2023-02-16T22:54:06.446Z,84.00
2023-02-16T22:56:12.952Z,83.94
2023-02-16T22:58:16.778Z,83.87
2023-02-16T23:00:20.732Z,84.04
2023-02-16T23:02:24.915Z,84.34
2023-02-16T23:04:29.627Z,84.02
2023-02-16T23:06:34.864Z,84.17
2023-02-16T23:08:38.227Z,83.76
2023-02-16T23:10:59.529Z,84.07
2023-02-16T23:13:03.330Z,84.01
2023-02-16T23:15:07.299Z,85.28
2023-02-16T23:17:10.748Z,86.28
2023-02-16T23:19:16.120Z,87.01
2023-02-16T23:21:23.116Z,87.31
2023-02-16T23:23:26.706Z,87.18
2023-02-16T23:25:36.002Z,86.29
2023-02-16T23:27:39.641Z,86.57
2023-02-16T23:29:43.018Z,85.80
2023-02-16T23:31:47.709Z,85.76
2023-02-16T23:33:51.953Z,85.76
2023-02-16T23:35:55.809Z,85.38
2023-02-16T23:38:02.726Z,85.25
2023-02-16T23:40:07.868Z,84.56
2023-02-16T23:42:11.273Z,84.46
2023-02-16T23:44:15.609Z,84.24
2023-02-16T23:46:19.066Z,83.52
2023-02-16T23:48:23.455Z,84.11
2023-02-16T23:50:27.214Z,83.85
2023-02-16T23:52:30.529Z,83.95
2023-02-16T23:54:35.400Z,84.10
2023-02-16T23:56:40.807Z,83.71
2023-02-16T23:58:46.025Z,84.00
